Time;durP1;ratioP1;P1;durP2;ratioP2;P2;SDS_P1;SDS_P2;PMS_P1;PMS_P2;Temp;Humidity;BMP_temperature;BMP_pressure;BME280_temperature;BME280_humidity;BME280_pressure;Samples;Min_cycle;Max_cycle;Signal;HPM_P1;HPM_P2
2022/06/18 00:00:51;;;;;;;3.73;3.43;;;20.20;54.70;;;;;;5078218;28;20761;-48
2022/06/18 00:03:18;;;;;;;4.10;3.70;;;20.10;54.80;;;;;;5079098;28;20410;-45
2022/06/18 00:05:46;;;;;;;3.87;3.57;;;20.10;55.10;;;;;;5078117;28;20443;-46
2022/06/18 00:08:14;;;;;;;4.57;4.17;;;20.10;55.30;;;;;;5077052;28;20539;-49
2022/06/18 00:10:40;;;;;;;4.53;4.00;;;20.10;55.40;;;;;;5074259;28;20435;-45
2022/06/18 00:15:59;;;;;;;4.63;3.70;;;20.00;55.80;;;;;;5076180;28;20445;-47
2022/06/18 00:18:26;;;;;;;3.93;3.27;;;20.00;55.80;;;;;;5076212;28;20419;-45
2022/06/18 00:20:51;;;;;;;3.80;3.50;;;20.00;55.90;;;;;;5078313;28;20698;-47
2022/06/18 00:23:18;;;;;;;4.40;4.07;;;20.00;56.00;;;;;;5077231;28;20417;-49
2022/06/18 00:25:46;;;;;;;3.73;3.30;;;20.00;55.80;;;;;;5078600;28;20185;-45
2022/06/18 00:28:15;;;;;;;4.40;3.97;;;19.90;55.90;;;;;;5077034;28;20431;-46
2022/06/18 00:30:41;;;;;;;3.60;3.27;;;20.00;56.10;;;;;;5076149;28;20468;-47
2022/06/18 00:33:07;;;;;;;3.50;3.20;;;19.90;56.20;;;;;;5076161;28;20490;-48
2022/06/18 00:35:34;;;;;;;5.90;3.87;;;19.90;56.40;;;;;;5076137;28;20415;-45
2022/06/18 00:38:00;;;;;;;4.53;3.57;;;19.90;56.50;;;;;;5074410;28;20471;-49
2022/06/18 00:40:31;;;;;;;4.40;3.70;;;19.90;56.50;;;;;;5075994;28;20432;-46
2022/06/18 00:42:59;;;;;;;3.83;3.43;;;19.90;56.70;;;;;;5075415;28;20812;-46
2022/06/18 00:45:27;;;;;;;3.90;3.37;;;19.90;56.80;;;;;;5076273;28;20411;-46
2022/06/18 00:48:06;;;;;;;3.33;3.03;;;19.90;57.00;;;;;;5077292;28;20828;-46
2022/06/18 00:50:41;;;;;;;4.03;3.73;;;19.80;57.40;;;;;;5078255;28;20415;-46
2022/06/18 00:53:26;;;;;;;2.67;2.47;;;19.80;57.60;;;;;;5076959;28;20791;-49
2022/06/18 00:56:06;;;;;;;3.77;3.37;;;19.80;57.80;;;;;;5078208;28;20480;-49
2022/06/18 00:58:53;;;;;;;3.70;3.40;;;19.80;58.10;;;;;;5078053;28;20411;-48
2022/06/18 01:01:22;;;;;;;4.10;3.80;;;19.80;58.30;;;;;;5076848;28;20869;-48
2022/06/18 01:03:50;;;;;;;4.10;3.80;;;19.70;58.40;;;;;;5076810;28;20410;-46
2022/06/18 01:06:22;;;;;;;4.00;3.60;;;19.70;58.50;;;;;;5077340;28;20716;-49
2022/06/18 01:08:52;;;;;;;3.90;3.50;;;19.70;58.80;;;;;;5076005;28;20495;-46
2022/06/18 01:11:27;;;;;;;4.10;3.80;;;19.70;58.80;;;;;;5076095;28;20435;-47
2022/06/18 01:13:53;;;;;;;4.53;4.13;;;19.80;58.90;;;;;;5078302;28;20416;-47
2022/06/18 01:16:19;;;;;;;3.87;3.57;;;19.80;58.80;;;;;;5077403;28;20909;-46
2022/06/18 01:18:47;;;;;;;3.93;3.53;;;19.80;58.70;;;;;;5077734;28;20424;-45
2022/06/18 01:21:52;;;;;;;3.70;3.40;;;19.80;58.60;;;;;;5076787;28;20702;-48
2022/06/18 01:24:21;;;;;;;5.73;4.00;;;19.90;58.50;;;;;;5076502;28;20734;-48
2022/06/18 01:26:49;;;;;;;3.80;3.50;;;19.90;58.40;;;;;;5076635;28;20850;-46
2022/06/18 01:29:14;;;;;;;3.83;3.53;;;19.90;58.20;;;;;;5076787;28;20417;-45
2022/06/18 01:31:40;;;;;;;4.03;3.73;;;19.90;58.10;;;;;;5075852;28;20467;-47
2022/06/18 01:34:06;;;;;;;4.00;3.70;;;19.90;57.90;;;;;;5075086;28;20176;-46
2022/06/18 01:36:37;;;;;;;4.60;4.20;;;19.90;57.80;;;;;;5073742;28;20504;-45
2022/06/18 01:39:05;;;;;;;3.97;3.67;;;19.90;57.70;;;;;;5075671;28;20405;-44
2022/06/18 01:41:49;;;;;;;4.10;3.80;;;20.00;57.80;;;;;;5074976;28;20434;-46
2022/06/18 01:44:38;;;;;;;3.80;3.50;;;20.00;57.50;;;;;;5075544;28;20947;-45
2022/06/18 01:47:12;;;;;;;3.80;3.50;;;20.00;57.30;;;;;;5076347;28;20593;-46
2022/06/18 01:53:06;;;;;;;7.23;4.00;;;20.00;57.20;;;;;;5061133;28;20485;-45
2022/06/18 01:55:38;;;;;;;3.57;3.27;;;20.00;57.00;;;;;;5076409;28;20507;-46
2022/06/18 01:58:08;;;;;;;3.90;3.60;;;20.00;56.80;;;;;;5075837;28;20829;-47
2022/06/18 02:00:33;;;;;;;3.47;3.27;;;20.00;56.60;;;;;;5075927;28;20514;-46
2022/06/18 02:03:00;;;;;;;3.50;2.90;;;20.00;56.30;;;;;;5077651;28;20510;-45
2022/06/18 02:05:26;;;;;;;3.90;3.60;;;20.00;56.20;;;;;;5077536;28;20167;-45
2022/06/18 02:07:52;;;;;;;3.70;3.40;;;20.00;56.10;;;;;;5079754;28;20405;-44
2022/06/18 02:10:26;;;;;;;4.17;3.23;;;20.10;56.10;;;;;;5081364;28;20419;-47
2022/06/18 02:12:52;;;;;;;3.50;3.20;;;20.10;56.00;;;;;;5063436;28;20433;-46
2022/06/18 02:15:24;;;;;;;3.67;3.37;;;20.10;55.90;;;;;;5080092;28;20864;-48
2022/06/18 02:17:50;;;;;;;3.60;3.30;;;20.10;55.90;;;;;;5079494;28;20808;-48
2022/06/18 02:20:26;;;;;;;3.93;3.63;;;20.10;55.80;;;;;;5080138;28;20413;-43
2022/06/18 02:22:54;;;;;;;3.90;3.60;;;20.00;55.80;;;;;;5080768;28;20418;-45
2022/06/18 02:25:26;;;;;;;3.90;3.60;;;20.00;55.80;;;;;;5079922;28;20416;-47
2022/06/18 02:27:56;;;;;;;4.00;3.60;;;20.00;55.80;;;;;;5079882;28;20405;-45
2022/06/18 02:30:25;;;;;;;3.57;3.27;;;20.00;55.30;;;;;;5080810;28;20811;-44
2022/06/18 02:33:16;;;;;;;4.10;3.80;;;20.00;55.80;;;;;;5077751;28;20421;-45
2022/06/18 02:35:41;;;;;;;3.80;3.50;;;20.00;56.50;;;;;;5078031;28;20698;-44
2022/06/18 02:38:19;;;;;;;4.10;3.80;;;20.00;56.20;;;;;;5079399;28;20484;-47
2022/06/18 02:40:44;;;;;;;3.63;3.33;;;19.90;56.10;;;;;;5079131;28;20176;-45
2022/06/18 02:43:11;;;;;;;3.87;3.57;;;19.90;56.20;;;;;;5078634;28;20533;-46
2022/06/18 02:45:37;;;;;;;4.17;3.80;;;19.90;56.40;;;;;;5061261;28;20179;-48
2022/06/18 02:48:03;;;;;;;3.90;3.60;;;19.90;56.70;;;;;;5078041;28;20420;-46
2022/06/18 02:50:34;;;;;;;3.70;3.40;;;19.80;56.90;;;;;;5079156;28;20909;-44
2022/06/18 02:53:02;;;;;;;4.07;3.43;;;19.80;57.40;;;;;;5078425;28;20421;-49
2022/06/18 02:55:37;;;;;;;4.97;3.77;;;19.70;57.80;;;;;;5079976;28;20425;-50
2022/06/18 02:58:18;;;;;;;4.30;3.87;;;19.70;58.20;;;;;;5080861;28;20465;-49
2022/06/18 03:00:48;;;;;;;4.73;3.80;;;19.70;58.60;;;;;;5079899;28;20407;-48
2022/06/18 03:03:15;;;;;;;4.23;3.50;;;19.60;58.80;;;;;;5079377;28;20435;-44
2022/06/18 03:05:41;;;;;;;3.40;3.10;;;19.60;59.00;;;;;;5079258;28;20405;-43
2022/06/18 03:08:07;;;;;;;4.30;4.00;;;19.50;59.30;;;;;;5079953;28;20437;-45
2022/06/18 03:13:18;;;;;;;4.07;3.77;;;19.50;59.40;;;;;;5078756;28;20989;-46
2022/06/18 03:15:46;;;;;;;4.13;3.83;;;19.50;59.20;;;;;;5077962;28;20720;-44
2022/06/18 03:18:12;;;;;;;4.37;4.07;;;19.50;59.30;;;;;;5076195;28;20474;-45
2022/06/18 03:20:48;;;;;;;4.87;4.43;;;19.50;59.10;;;;;;5077747;28;20695;-46
2022/06/18 03:23:17;;;;;;;4.33;3.93;;;19.50;59.00;;;;;;5077186;28;20426;-44
2022/06/18 03:25:43;;;;;;;4.20;3.83;;;19.50;59.10;;;;;;5077797;28;20418;-44
2022/06/18 03:28:12;;;;;;;4.23;3.93;;;19.50;59.10;;;;;;5077848;28;20428;-46
2022/06/18 03:30:39;;;;;;;4.63;4.23;;;19.50;59.20;;;;;;5078167;28;20630;-48
2022/06/18 03:33:05;;;;;;;4.50;4.10;;;19.50;59.30;;;;;;5078298;28;20416;-44
2022/06/18 03:35:31;;;;;;;4.50;4.10;;;19.50;59.20;;;;;;5078477;28;20418;-46
2022/06/18 03:37:56;;;;;;;4.73;4.40;;;19.50;59.20;;;;;;5078329;28;20466;-46
2022/06/18 03:40:22;;;;;;;5.30;4.80;;;19.50;59.40;;;;;;5078604;28;20569;-44
2022/06/18 03:42:48;;;;;;;4.90;4.50;;;19.60;59.30;;;;;;5078945;28;20180;-45
2022/06/18 03:45:13;;;;;;;4.50;4.20;;;19.60;59.40;;;;;;5079158;28;20260;-45
2022/06/18 03:47:39;;;;;;;4.50;4.20;;;19.60;59.50;;;;;;5079499;28;20175;-47
2022/06/18 03:50:05;;;;;;;4.90;4.53;;;19.60;59.60;;;;;;5079365;28;20214;-45
2022/06/18 03:52:31;;;;;;;4.00;3.70;;;19.60;59.60;;;;;;5079588;28;20570;-44
2022/06/18 03:54:57;;;;;;;5.10;4.60;;;19.60;59.70;;;;;;5079360;28;20441;-43
2022/06/18 03:57:23;;;;;;;4.50;4.20;;;19.60;59.80;;;;;;5079043;28;20208;-46
2022/06/18 03:59:48;;;;;;;4.40;4.00;;;19.60;60.00;;;;;;5079482;28;20430;-45
2022/06/18 04:02:14;;;;;;;5.53;5.03;;;19.70;60.20;;;;;;5078777;28;20494;-46
2022/06/18 04:04:40;;;;;;;4.70;4.40;;;19.70;60.20;;;;;;5078033;28;20576;-46
2022/06/18 04:07:06;;;;;;;6.23;4.40;;;19.70;60.00;;;;;;5078316;28;20259;-47
2022/06/18 04:09:32;;;;;;;4.07;3.67;;;19.80;59.90;;;;;;5078688;28;20435;-48
2022/06/18 04:11:58;;;;;;;7.03;4.67;;;19.80;59.80;;;;;;5078849;28;20422;-44
2022/06/18 04:14:24;;;;;;;4.00;3.70;;;19.80;59.70;;;;;;5078815;28;20185;-45
2022/06/18 04:16:50;;;;;;;4.70;4.00;;;19.90;59.80;;;;;;5078475;28;20730;-45
2022/06/18 04:19:16;;;;;;;4.40;4.10;;;19.90;59.70;;;;;;5078983;28;20459;-47
2022/06/18 04:21:42;;;;;;;4.43;4.13;;;20.00;59.80;;;;;;5079180;28;20641;-44
2022/06/18 04:24:08;;;;;;;4.63;4.23;;;20.00;59.80;;;;;;5078468;28;20213;-50
2022/06/18 04:26:33;;;;;;;4.27;3.87;;;20.10;60.10;;;;;;5078749;28;20446;-43
2022/06/18 04:28:59;;;;;;;5.90;4.07;;;20.10;60.60;;;;;;5078292;28;20182;-46
2022/06/18 04:31:24;;;;;;;3.90;3.60;;;20.20;61.00;;;;;;5078230;28;20678;-49
2022/06/18 04:33:50;;;;;;;4.20;3.90;;;20.20;61.00;;;;;;5078682;28;20188;-45
2022/06/18 04:36:32;;;;;;;4.70;4.30;;;20.30;61.10;;;;;;5077941;28;20244;-45
2022/06/18 04:38:58;;;;;;;4.53;4.23;;;20.30;61.20;;;;;;5077584;28;20266;-49
2022/06/18 04:41:23;;;;;;;4.53;4.13;;;20.40;61.30;;;;;;5077158;28;20428;-48
2022/06/18 04:43:49;;;;;;;4.50;4.10;;;20.40;61.40;;;;;;5076442;28;20435;-46
2022/06/18 04:46:15;;;;;;;4.73;4.40;;;20.50;61.30;;;;;;5076879;28;20242;-44
2022/06/18 04:48:41;;;;;;;6.07;4.80;;;20.50;61.10;;;;;;5075791;28;20567;-49
2022/06/18 04:51:06;;;;;;;4.60;4.20;;;20.60;60.90;;;;;;5076989;28;20268;-45
2022/06/18 04:53:32;;;;;;;5.10;4.60;;;20.60;60.90;;;;;;5076410;28;20861;-49
2022/06/18 04:55:58;;;;;;;4.60;4.20;;;20.70;61.10;;;;;;5077765;28;20173;-45
2022/06/18 04:58:23;;;;;;;4.43;4.03;;;20.70;60.90;;;;;;5076313;28;20265;-45
2022/06/18 05:00:49;;;;;;;4.30;4.00;;;20.70;60.90;;;;;;5077215;28;20181;-46
2022/06/18 05:03:17;;;;;;;4.50;4.20;;;20.80;60.90;;;;;;5074975;28;20186;-48
2022/06/18 05:05:43;;;;;;;4.33;4.00;;;20.90;60.60;;;;;;5074948;28;20170;-46
2022/06/18 05:08:08;;;;;;;4.33;3.93;;;20.90;61.10;;;;;;5077065;28;20829;-47
2022/06/18 05:10:34;;;;;;;4.43;4.03;;;21.00;60.10;;;;;;5077257;28;20246;-46
2022/06/18 05:13:01;;;;;;;4.67;4.27;;;21.10;60.00;;;;;;5077474;28;20175;-45
2022/06/18 05:15:26;;;;;;;3.90;3.60;;;21.20;59.80;;;;;;5077621;28;20239;-44
2022/06/18 05:17:52;;;;;;;4.90;4.47;;;21.30;59.60;;;;;;5076632;28;20955;-47
2022/06/18 05:20:21;;;;;;;4.60;4.20;;;21.40;59.50;;;;;;5077150;28;20188;-46
2022/06/18 05:22:47;;;;;;;4.60;4.20;;;21.50;59.20;;;;;;5077169;28;20189;-47
2022/06/18 05:25:14;;;;;;;4.40;4.00;;;21.60;58.90;;;;;;5077156;28;20441;-45
2022/06/18 05:27:40;;;;;;;4.77;4.40;;;21.70;58.70;;;;;;5076612;28;20517;-47
2022/06/18 05:30:08;;;;;;;5.10;4.70;;;21.70;58.20;;;;;;5076191;28;20522;-47
2022/06/18 05:32:33;;;;;;;5.47;4.93;;;21.80;58.00;;;;;;5076584;28;20759;-47
2022/06/18 05:34:59;;;;;;;4.33;4.03;;;21.90;58.20;;;;;;5074865;28;20778;-47
2022/06/18 05:37:27;;;;;;;5.53;5.03;;;22.00;58.00;;;;;;5075179;28;20237;-46
2022/06/18 05:39:53;;;;;;;6.53;5.10;;;22.00;57.80;;;;;;5074520;28;20182;-49
2022/06/18 05:42:18;;;;;;;8.03;5.00;;;22.10;57.80;;;;;;5072434;28;20475;-46
2022/06/18 05:44:44;;;;;;;5.00;4.60;;;22.10;57.30;;;;;;5072769;28;20171;-46
2022/06/18 05:47:22;;;;;;;5.30;4.80;;;22.00;56.90;;;;;;5074326;28;20378;-48
2022/06/18 05:49:48;;;;;;;5.20;4.70;;;22.10;56.90;;;;;;5075277;28;20192;-48
2022/06/18 05:52:14;;;;;;;4.90;4.60;;;22.20;57.00;;;;;;5074754;28;20418;-47
2022/06/18 05:54:39;;;;;;;9.80;5.43;;;22.30;56.70;;;;;;5075053;28;20430;-48
2022/06/18 05:57:05;;;;;;;5.83;5.43;;;22.50;57.10;;;;;;5076280;28;20474;-46
2022/06/18 05:59:31;;;;;;;5.40;5.00;;;22.60;57.90;;;;;;5075026;28;20467;-45
2022/06/18 06:01:57;;;;;;;5.47;5.07;;;22.80;56.70;;;;;;5073832;28;20677;-45
2022/06/18 06:04:24;;;;;;;5.50;5.00;;;23.00;56.60;;;;;;5073033;28;20494;-51
2022/06/18 06:06:51;;;;;;;5.73;5.23;;;23.20;56.70;;;;;;5073444;28;20206;-45
2022/06/18 06:11:28;;;;;;;5.20;4.70;;;23.40;56.50;;;;;;5073585;28;20466;-48
2022/06/18 06:12:12;;;;;;;5.63;5.03;;;23.60;56.30;;;;;;5073080;28;20435;-47
2022/06/18 06:14:39;;;;;;;5.30;4.87;;;23.80;56.20;;;;;;5073610;28;20528;-46
2022/06/18 06:17:08;;;;;;;5.20;4.80;;;24.00;55.20;;;;;;5073396;28;20494;-48
2022/06/18 06:19:34;;;;;;;5.27;4.77;;;24.00;54.90;;;;;;5074097;28;20528;-46
2022/06/18 06:21:59;;;;;;;5.50;5.00;;;24.00;55.00;;;;;;5074810;28;20880;-47
2022/06/18 06:24:25;;;;;;;5.00;4.60;;;24.00;54.90;;;;;;5074521;28;20277;-48
2022/06/18 06:26:51;;;;;;;7.20;5.00;;;24.10;55.30;;;;;;5075286;28;20166;-47
2022/06/18 06:29:16;;;;;;;5.30;4.90;;;24.10;55.10;;;;;;5074025;28;20483;-51
2022/06/18 06:31:42;;;;;;;4.77;4.37;;;24.10;55.00;;;;;;5074527;28;20229;-46
2022/06/18 06:34:07;;;;;;;5.50;5.20;;;24.20;54.60;;;;;;5076150;28;20251;-48
2022/06/18 06:36:33;;;;;;;5.37;4.93;;;24.30;54.10;;;;;;5073308;28;20213;-49
2022/06/18 06:38:59;;;;;;;5.63;5.13;;;24.40;53.70;;;;;;5092026;28;20468;-47
2022/06/18 06:41:27;;;;;;;5.63;5.07;;;24.40;53.40;;;;;;5094890;28;20165;-51
2022/06/18 06:43:53;;;;;;;6.07;5.30;;;24.50;53.30;;;;;;5094709;28;20551;-45
2022/06/18 06:46:19;;;;;;;4.63;4.33;;;24.60;53.50;;;;;;5088029;28;20410;-49
2022/06/18 06:48:45;;;;;;;5.33;4.93;;;24.70;53.20;;;;;;5094781;28;20192;-49
2022/06/18 06:51:15;;;;;;;5.03;4.73;;;24.90;53.10;;;;;;5093998;28;20424;-46
2022/06/18 06:53:40;;;;;;;5.80;5.40;;;25.00;53.00;;;;;;5098228;28;20424;-46
2022/06/18 06:58:56;;;;;;;5.60;5.20;;;25.40;52.70;;;;;;5099346;28;20207;-50
2022/06/18 07:01:21;;;;;;;4.80;4.50;;;25.60;52.00;;;;;;5099190;28;20418;-48
2022/06/18 07:03:48;;;;;;;4.70;4.30;;;25.90;51.60;;;;;;5096727;28;20313;-49
2022/06/18 07:06:16;;;;;;;5.10;4.73;;;26.00;50.80;;;;;;5097484;28;20261;-49
2022/06/18 07:08:43;;;;;;;5.07;4.67;;;26.20;50.80;;;;;;5099087;28;20429;-49
2022/06/18 07:11:09;;;;;;;5.40;5.00;;;26.50;50.10;;;;;;5098789;28;20517;-48
2022/06/18 07:13:35;;;;;;;6.47;4.63;;;26.50;49.70;;;;;;5100044;28;20512;-49
2022/06/18 07:16:01;;;;;;;5.57;5.17;;;26.60;49.80;;;;;;5098917;28;20411;-53
2022/06/18 07:18:31;;;;;;;5.10;4.70;;;26.80;49.80;;;;;;5098343;28;20274;-48
2022/06/18 07:21:00;;;;;;;5.17;4.77;;;27.10;49.30;;;;;;5097842;28;20172;-49
2022/06/18 07:23:26;;;;;;;6.10;4.70;;;27.30;48.70;;;;;;5098346;28;20430;-48
2022/06/18 07:25:51;;;;;;;5.53;5.13;;;27.40;48.60;;;;;;5099609;28;20519;-49
2022/06/18 07:28:17;;;;;;;4.50;4.07;;;27.50;47.30;;;;;;5097053;28;20489;-49
2022/06/18 07:30:46;;;;;;;5.37;4.97;;;27.50;47.00;;;;;;5097839;28;20303;-49
2022/06/18 07:33:14;;;;;;;4.73;4.33;;;27.50;47.60;;;;;;5096822;28;20471;-49
2022/06/18 07:35:40;;;;;;;4.67;4.20;;;27.60;47.90;;;;;;5096079;28;20747;-50
2022/06/18 07:38:05;;;;;;;4.77;4.37;;;27.80;47.50;;;;;;5095733;28;20448;-50
2022/06/18 07:40:36;;;;;;;4.37;4.07;;;28.10;46.30;;;;;;5095169;28;20469;-48
2022/06/18 07:43:03;;;;;;;4.57;4.27;;;28.10;44.90;;;;;;5095247;28;20173;-49
2022/06/18 07:45:29;;;;;;;4.57;4.17;;;28.20;44.70;;;;;;5079318;28;20419;-50
2022/06/18 07:47:54;;;;;;;4.10;3.80;;;28.30;44.70;;;;;;5097278;28;20421;-50
2022/06/18 07:50:22;;;;;;;4.30;4.00;;;28.50;43.00;;;;;;5097950;28;20243;-50
2022/06/18 07:52:48;;;;;;;4.10;3.80;;;28.50;43.90;;;;;;5097190;28;20170;-52
2022/06/18 07:55:20;;;;;;;4.60;4.30;;;28.60;44.10;;;;;;5095077;28;20437;-49
2022/06/18 07:57:46;;;;;;;3.83;3.53;;;28.60;43.30;;;;;;5094609;28;20203;-51
2022/06/18 08:00:16;;;;;;;5.50;3.87;;;28.70;42.70;;;;;;5094963;28;20415;-55
2022/06/18 08:02:43;;;;;;;4.40;4.00;;;28.90;43.00;;;;;;5096596;28;20403;-51
2022/06/18 08:05:11;;;;;;;4.30;3.90;;;29.10;41.50;;;;;;5094244;28;20557;-53
2022/06/18 08:07:36;;;;;;;4.00;3.60;;;29.30;41.80;;;;;;5095418;28;20415;-42
2022/06/18 08:10:04;;;;;;;4.40;4.00;;;29.60;42.30;;;;;;5097389;28;20777;-40
2022/06/18 08:12:31;;;;;;;4.90;4.40;;;30.10;42.00;;;;;;5099509;28;20187;-42
2022/06/18 08:14:58;;;;;;;4.40;4.10;;;30.40;41.50;;;;;;5096124;28;20737;-41
2022/06/18 08:17:25;;;;;;;4.93;4.23;;;30.60;41.50;;;;;;5096898;28;20754;-41
2022/06/18 08:19:51;;;;;;;4.77;4.47;;;30.60;41.50;;;;;;5096140;28;20497;-40
2022/06/18 08:22:17;;;;;;;4.70;4.17;;;30.50;41.40;;;;;;5095634;28;20734;-40
2022/06/18 08:24:43;;;;;;;4.73;4.43;;;30.30;41.20;;;;;;5096168;28;20428;-42
2022/06/18 08:27:09;;;;;;;3.90;3.50;;;30.20;40.80;;;;;;5095377;28;20185;-40
2022/06/18 08:29:35;;;;;;;4.70;4.40;;;30.20;41.30;;;;;;5097034;28;20474;-41
2022/06/18 08:32:02;;;;;;;4.47;4.17;;;30.60;41.10;;;;;;5096134;28;20411;-41
2022/06/18 08:34:27;;;;;;;3.97;3.67;;;30.90;41.00;;;;;;5095416;28;20430;-41
2022/06/18 08:36:53;;;;;;;5.10;4.70;;;31.20;39.90;;;;;;5096545;28;20463;-42
2022/06/18 08:39:18;;;;;;;4.27;3.87;;;31.30;39.40;;;;;;5096199;28;20558;-42
2022/06/18 08:42:02;;;;;;;4.43;4.07;;;31.40;39.80;;;;;;5094598;28;20270;-39
2022/06/18 08:44:53;;;;;;;4.83;4.40;;;31.80;38.90;;;;;;5096944;28;20560;-41
2022/06/18 08:47:52;;;;;;;4.07;3.60;;;31.80;38.60;;;;;;5095924;28;20885;-42
2022/06/18 08:50:25;;;;;;;4.30;3.90;;;32.00;37.60;;;;;;5096981;28;20475;-43
2022/06/18 08:53:01;;;;;;;3.80;3.50;;;32.00;37.90;;;;;;5095662;28;20379;-44
2022/06/18 08:55:48;;;;;;;14.10;5.30;;;31.90;37.60;;;;;;5078784;28;20429;-42
2022/06/18 08:58:33;;;;;;;7.30;4.00;;;32.10;37.80;;;;;;5094350;28;20800;-42
2022/06/18 09:01:15;;;;;;;4.27;3.87;;;32.40;36.90;;;;;;5095804;28;20478;-43
2022/06/18 09:04:09;;;;;;;4.40;4.00;;;32.80;37.20;;;;;;5095734;28;20505;-42
2022/06/18 09:07:09;;;;;;;4.37;4.07;;;33.20;36.30;;;;;;5094806;28;20421;-41
2022/06/18 09:10:04;;;;;;;4.20;3.90;;;33.30;35.90;;;;;;5095848;28;20741;-41
2022/06/18 09:12:56;;;;;;;3.57;3.27;;;33.50;35.30;;;;;;5077359;28;20416;-41
2022/06/18 09:15:26;;;;;;;4.50;4.03;;;33.70;35.70;;;;;;5094275;28;20396;-41
2022/06/18 09:17:59;;;;;;;4.00;3.60;;;33.80;34.90;;;;;;5095293;28;20739;-41
2022/06/18 09:20:51;;;;;;;4.80;4.10;;;34.00;35.40;;;;;;5094109;28;20672;-41
2022/06/18 09:23:25;;;;;;;4.13;3.83;;;34.10;34.20;;;;;;5079196;28;20611;-40
2022/06/18 09:25:53;;;;;;;3.80;3.50;;;33.80;34.30;;;;;;5096041;28;20762;-41
2022/06/18 09:28:41;;;;;;;3.67;3.37;;;33.50;32.90;;;;;;5096667;28;20445;-41
2022/06/18 09:31:14;;;;;;;3.10;2.80;;;33.40;32.80;;;;;;5096337;28;20453;-40
2022/06/18 09:33:48;;;;;;;3.60;3.30;;;33.40;31.80;;;;;;5094880;28;20400;-41
2022/06/18 09:36:18;;;;;;;3.40;3.20;;;33.50;33.10;;;;;;5094984;28;20741;-41
2022/06/18 09:38:50;;;;;;;3.47;3.17;;;33.80;33.40;;;;;;5092507;28;20651;-42
2022/06/18 09:41:19;;;;;;;3.40;3.10;;;34.10;33.80;;;;;;5094195;28;20483;-41
2022/06/18 09:43:50;;;;;;;3.27;2.97;;;34.40;31.70;;;;;;5094802;28;20728;-41
2022/06/18 09:46:23;;;;;;;2.83;2.63;;;34.80;31.10;;;;;;5094955;28;20390;-41
2022/06/18 09:48:49;;;;;;;2.30;2.10;;;35.00;31.60;;;;;;5097099;28;20441;-41
2022/06/18 09:51:43;;;;;;;2.93;2.73;;;35.50;31.20;;;;;;5097565;28;20798;-41
2022/06/18 09:54:11;;;;;;;2.70;2.37;;;36.10;31.10;;;;;;5095979;28;20435;-42
2022/06/18 09:56:40;;;;;;;3.10;2.33;;;35.50;30.00;;;;;;5096114;28;20458;-43
2022/06/18 09:59:13;;;;;;;2.60;2.40;;;35.50;30.40;;;;;;5094193;28;20409;-41
2022/06/18 10:01:45;;;;;;;2.60;2.40;;;35.10;28.80;;;;;;5095115;28;20385;-41
2022/06/18 10:07:13;;;;;;;3.03;2.33;;;35.00;29.40;;;;;;5093575;28;20371;-43
2022/06/18 10:09:43;;;;;;;2.60;2.40;;;35.20;28.70;;;;;;5095627;28;20716;-43
2022/06/18 10:12:25;;;;;;;2.33;2.13;;;35.70;29.50;;;;;;5094116;28;20429;-43
2022/06/18 10:14:56;;;;;;;3.10;2.77;;;36.20;28.40;;;;;;5096240;28;20805;-41
2022/06/18 10:17:39;;;;;;;2.90;2.10;;;36.10;28.60;;;;;;5094533;28;20432;-41
2022/06/18 10:20:40;;;;;;;2.47;2.27;;;36.40;28.50;;;;;;5093500;28;20433;-40
2022/06/18 10:23:12;;;;;;;4.43;2.40;;;36.40;27.60;;;;;;5093798;28;20510;-41
2022/06/18 10:25:47;;;;;;;2.50;2.30;;;36.50;27.90;;;;;;5096018;28;20413;-43
2022/06/18 10:28:34;;;;;;;1.73;1.60;;;36.90;28.20;;;;;;5079636;28;20423;-41
2022/06/18 10:31:27;;;;;;;1.40;1.20;;;37.20;26.20;;;;;;5096881;28;20459;-43
2022/06/18 10:34:10;;;;;;;1.67;1.57;;;37.30;23.40;;;;;;5098025;28;20494;-41
2022/06/18 10:37:09;;;;;;;2.80;1.70;;;37.00;25.70;;;;;;5098038;28;20432;-42
2022/06/18 10:39:47;;;;;;;3.23;2.10;;;37.10;26.40;;;;;;5097064;28;20611;-40
2022/06/18 10:42:12;;;;;;;2.30;1.83;;;37.40;26.80;;;;;;5096622;28;20422;-41
2022/06/18 10:44:45;;;;;;;2.40;1.60;;;37.70;27.10;;;;;;5096483;28;20407;-42
2022/06/18 10:47:15;;;;;;;1.80;1.70;;;38.20;27.30;;;;;;5095181;28;20236;-43
2022/06/18 10:49:41;;;;;;;2.37;2.17;;;38.80;26.10;;;;;;5095266;28;20426;-40
2022/06/18 10:52:17;;;;;;;3.30;2.30;;;39.40;27.50;;;;;;5096080;28;20394;-41
2022/06/18 10:54:43;;;;;;;3.33;2.43;;;39.80;26.70;;;;;;5092821;28;20675;-41
2022/06/18 10:57:22;;;;;;;2.80;2.60;;;39.10;27.10;;;;;;5093540;28;20455;-41
2022/06/18 10:59:48;;;;;;;2.80;2.60;;;37.90;27.30;;;;;;5095057;28;20176;-40
2022/06/18 11:02:21;;;;;;;4.43;2.80;;;36.80;28.00;;;;;;5092539;28;20726;-42
2022/06/18 11:05:00;;;;;;;2.77;2.57;;;36.40;28.80;;;;;;5091417;28;20691;-40
2022/06/18 11:07:29;;;;;;;3.03;2.83;;;36.60;28.80;;;;;;5091611;28;20423;-42
2022/06/18 11:10:01;;;;;;;3.10;2.30;;;37.10;28.70;;;;;;5094593;28;20504;-41
2022/06/18 11:12:37;;;;;;;3.47;2.57;;;37.40;29.30;;;;;;5097311;28;20464;-43
2022/06/18 11:15:07;;;;;;;3.40;2.93;;;37.80;28.00;;;;;;5096008;28;20529;-43
2022/06/18 11:17:43;;;;;;;3.23;2.80;;;37.80;28.00;;;;;;5096823;28;20482;-41
2022/06/18 11:20:15;;;;;;;7.67;2.67;;;37.60;27.80;;;;;;5097357;28;20708;-43
2022/06/18 11:22:42;;;;;;;3.00;2.50;;;37.70;27.60;;;;;;5099551;28;20433;-43
2022/06/18 11:25:49;;;;;;;2.87;2.67;;;38.00;27.80;;;;;;5097711;28;20409;-42
2022/06/18 11:28:33;;;;;;;4.07;3.10;;;39.00;28.00;;;;;;5013823;28;20454;-43
2022/06/18 11:30:59;;;;;;;3.63;2.83;;;39.10;27.00;;;;;;5092096;28;20484;-42
2022/06/18 11:33:40;;;;;;;4.20;2.83;;;39.10;27.60;;;;;;5076996;28;20437;-42
2022/06/18 11:36:17;;;;;;;6.23;3.07;;;39.50;27.80;;;;;;5096335;28;20426;-42
2022/06/18 11:38:56;;;;;;;3.47;3.10;;;39.20;27.00;;;;;;5093584;28;20469;-43
2022/06/18 11:41:40;;;;;;;3.50;3.00;;;38.70;27.30;;;;;;5094095;28;20399;-43
2022/06/18 11:44:21;;;;;;;5.80;3.70;;;38.90;27.60;;;;;;5095407;28;20794;-42
2022/06/18 11:47:12;;;;;;;6.53;3.53;;;39.00;27.80;;;;;;5095835;28;20440;-42
2022/06/18 11:49:55;;;;;;;3.83;3.17;;;39.00;27.80;;;;;;5095973;28;20397;-43
2022/06/18 11:52:36;;;;;;;3.80;3.40;;;39.30;28.30;;;;;;5092777;28;20515;-43
2022/06/18 11:55:25;;;;;;;4.40;3.60;;;38.70;28.30;;;;;;5092519;28;20567;-42
2022/06/18 11:58:05;;;;;;;6.70;3.80;;;38.50;28.80;;;;;;5080906;28;20463;-42
2022/06/18 12:00:52;;;;;;;7.10;4.70;;;38.70;28.90;;;;;;5092798;28;20794;-44
2022/06/18 12:03:25;;;;;;;4.90;4.33;;;39.10;29.40;;;;;;5093851;28;20501;-44
2022/06/18 12:06:00;;;;;;;5.20;4.23;;;39.80;29.00;;;;;;5095217;28;20810;-43
2022/06/18 12:08:26;;;;;;;7.80;4.43;;;39.80;29.20;;;;;;5097392;28;20431;-43
2022/06/18 12:10:52;;;;;;;9.43;4.97;;;39.60;28.60;;;;;;5096712;28;20418;-42
2022/06/18 12:13:28;;;;;;;11.30;4.63;;;39.30;28.60;;;;;;5097266;28;20195;-44
2022/06/18 12:16:19;;;;;;;7.00;4.20;;;39.40;28.60;;;;;;5094923;28;20177;-43
2022/06/18 12:18:57;;;;;;;8.57;4.83;;;39.50;29.20;;;;;;5094351;28;21036;-44
2022/06/18 12:21:42;;;;;;;8.07;4.70;;;39.30;29.10;;;;;;5096725;28;20443;-42
2022/06/18 12:24:32;;;;;;;8.73;5.30;;;38.80;28.60;;;;;;5097776;28;20779;-43
2022/06/18 12:27:10;;;;;;;11.30;5.40;;;39.40;28.80;;;;;;5096706;28;20383;-41
2022/06/18 12:29:57;;;;;;;13.17;5.43;;;39.70;27.50;;;;;;5094741;28;20838;-44
2022/06/18 12:32:35;;;;;;;11.30;4.47;;;39.80;27.60;;;;;;5092529;28;20532;-43
2022/06/18 12:35:25;;;;;;;12.63;4.57;;;40.20;27.50;;;;;;5091214;28;20467;-43
2022/06/18 12:38:14;;;;;;;8.47;5.37;;;39.90;27.50;;;;;;5094021;28;20529;-42
2022/06/18 12:40:43;;;;;;;11.77;4.57;;;39.90;27.40;;;;;;5095051;28;20420;-44
2022/06/18 12:43:28;;;;;;;9.40;5.10;;;39.70;27.80;;;;;;5096772;28;20457;-43
2022/06/18 12:46:03;;;;;;;10.00;4.57;;;39.50;28.00;;;;;;5093425;28;20434;-43
2022/06/18 12:48:47;;;;;;;9.30;5.13;;;39.10;28.10;;;;;;5093412;28;20736;-41
2022/06/18 12:51:15;;;;;;;14.23;5.03;;;39.00;28.70;;;;;;5127440;27;20702;-43
2022/06/18 12:53:52;;;;;;;7.90;4.77;;;39.20;28.90;;;;;;5093940;28;20397;-43
2022/06/18 12:56:32;;;;;;;10.27;5.60;;;38.80;29.10;;;;;;5092593;28;20393;-41
2022/06/18 12:59:09;;;;;;;9.83;5.57;;;38.50;29.40;;;;;;5093443;28;20740;-42
2022/06/18 13:01:56;;;;;;;8.40;4.60;;;38.80;29.40;;;;;;5095404;28;20699;-42
2022/06/18 13:05:00;;;;;;;5.73;4.47;;;39.20;29.00;;;;;;5096208;28;20673;-43
2022/06/18 13:07:37;;;;;;;10.13;5.20;;;39.30;28.90;;;;;;5095605;28;20444;-43
2022/06/18 13:10:44;;;;;;;10.00;4.03;;;39.20;28.80;;;;;;5095640;28;20433;-41
2022/06/18 13:13:19;;;;;;;7.70;4.00;;;39.10;28.60;;;;;;5078047;28;20441;-41
2022/06/18 13:15:51;;;;;;;9.23;4.40;;;38.70;29.30;;;;;;5096040;28;20745;-42
2022/06/18 13:18:26;;;;;;;9.83;5.00;;;38.50;29.30;;;;;;5078728;28;20533;-43
2022/06/18 13:20:55;;;;;;;7.50;4.37;;;38.60;30.10;;;;;;5096019;28;20441;-43
2022/06/18 13:29:14;;;;;;;10.37;4.80;;;39.40;29.00;;;;;;5093664;28;20401;-41